createdAt,value
2022-11-16T00:00:36.777Z,82.43
2022-11-16T00:01:39.059Z,94.60
2022-11-16T00:02:41.252Z,93.93
2022-11-16T00:03:43.536Z,94.75
2022-11-16T00:04:45.757Z,93.10
2022-11-16T00:05:47.947Z,94.75
2022-11-16T00:06:50.373Z,84.95
2022-11-16T00:07:52.727Z,81.72
2022-11-16T00:09:15.795Z,85.88
2022-11-16T00:10:18.074Z,82.25
2022-11-16T00:11:20.158Z,89.30
2022-11-16T00:12:22.363Z,84.22
2022-11-16T00:13:24.519Z,85.70
2022-11-16T00:14:31.147Z,83.25
2022-11-16T00:15:33.331Z,85.65
2022-11-16T00:16:35.618Z,85.85
2022-11-16T00:17:37.825Z,89.18
2022-11-16T00:18:40.059Z,90.43
2022-11-16T00:19:42.287Z,83.93
2022-11-16T00:20:44.990Z,77.10
2022-11-16T00:21:47.513Z,80.13
2022-11-16T00:22:49.755Z,88.15
2022-11-16T00:23:51.970Z,85.90
2022-11-16T00:24:54.101Z,92.72
2022-11-16T00:25:56.282Z,92.13
2022-11-16T00:26:58.608Z,96.93
2022-11-16T00:28:01.025Z,90.55
2022-11-16T00:29:03.388Z,93.32
2022-11-16T00:30:05.953Z,90.05
2022-11-16T00:31:08.516Z,88.47
2022-11-16T00:32:10.962Z,88.55
2022-11-16T00:33:18.412Z,87.95
2022-11-16T00:34:21.436Z,85.75
2022-11-16T00:35:23.546Z,89.88
2022-11-16T00:36:25.822Z,86.93
2022-11-16T00:37:28.062Z,80.60
2022-11-16T00:38:30.718Z,94.07
2022-11-16T00:39:33.225Z,91.63
2022-11-16T00:40:35.401Z,92.72
2022-11-16T00:41:37.679Z,91.20
2022-11-16T00:42:39.923Z,94.50
2022-11-16T00:43:42.317Z,90.32
2022-11-16T00:44:44.605Z,96.20
2022-11-16T00:45:46.925Z,91.38
2022-11-16T00:46:49.196Z,89.00
2022-11-16T00:47:55.227Z,85.60
2022-11-16T00:49:00.419Z,86.82
2022-11-16T00:50:02.800Z,94.70
2022-11-16T00:51:05.418Z,90.13
2022-11-16T00:52:07.705Z,97.25
2022-11-16T00:53:13.619Z,94.05
2022-11-16T00:54:16.349Z,91.68
2022-11-16T00:55:18.484Z,94.43
2022-11-16T00:56:20.879Z,91.45
2022-11-16T00:57:31.500Z,94.35
2022-11-16T00:58:33.863Z,102.65
2022-11-16T00:59:41.208Z,107.10
2022-11-16T01:00:44.426Z,104.00
2022-11-16T01:01:46.758Z,98.80
2022-11-16T01:02:49.324Z,97.90
2022-11-16T01:03:51.936Z,99.82
2022-11-16T01:04:54.866Z,97.38
2022-11-16T01:06:02.399Z,91.53
2022-11-16T01:07:06.429Z,89.47
2022-11-16T01:08:09.458Z,96.85
2022-11-16T01:10:17.699Z,94.80
2022-11-16T01:11:38.551Z,87.57
2022-11-16T01:12:41.529Z,93.38
2022-11-16T01:13:43.899Z,91.82
2022-11-16T01:14:47.684Z,89.88
2022-11-16T01:15:50.011Z,93.97
2022-11-16T01:16:52.266Z,95.50
2022-11-16T01:17:56.752Z,93.78
2022-11-16T01:18:59.694Z,93.63
2022-11-16T01:20:02.501Z,88.07
2022-11-16T01:21:07.236Z,87.65
2022-11-16T01:22:09.892Z,93.43
2022-11-16T01:23:12.674Z,103.90
2022-11-16T01:24:14.950Z,98.65
2022-11-16T01:25:17.488Z,100.03
2022-11-16T01:26:19.870Z,101.50
2022-11-16T01:27:22.433Z,94.72
2022-11-16T01:28:24.938Z,95.82
2022-11-16T01:29:29.359Z,94.72
2022-11-16T01:30:34.634Z,92.15
2022-11-16T01:31:41.304Z,96.80
2022-11-16T01:32:44.041Z,93.90
2022-11-16T01:33:46.458Z,97.40
2022-11-16T01:35:01.756Z,93.18
2022-11-16T01:36:14.926Z,92.63
2022-11-16T01:37:19.298Z,97.47
2022-11-16T01:38:23.931Z,98.00
2022-11-16T01:39:29.500Z,95.55
2022-11-16T01:40:36.616Z,86.32
2022-11-16T01:41:40.650Z,94.57
2022-11-16T01:42:42.942Z,98.28
2022-11-16T01:43:59.916Z,92.97
2022-11-16T01:45:22.900Z,88.45
2022-11-16T01:46:28.722Z,86.85
2022-11-16T01:47:31.880Z,97.97
2022-11-16T01:48:35.822Z,97.07
2022-11-16T01:49:43.577Z,97.07
2022-11-16T01:50:48.444Z,91.45
2022-11-16T01:51:56.529Z,91.20
2022-11-16T01:53:02.761Z,92.93
2022-11-16T01:54:13.104Z,94.28
2022-11-16T01:55:27.070Z,96.45
2022-11-16T01:56:45.902Z,93.00
2022-11-16T01:57:58.299Z,98.63
2022-11-16T01:59:01.141Z,97.10
2022-11-16T02:00:06.754Z,103.15
2022-11-16T02:01:26.274Z,102.13
2022-11-16T02:02:32.623Z,98.85
2022-11-16T02:03:38.126Z,97.03
2022-11-16T02:04:40.722Z,96.25
2022-11-16T02:06:05.570Z,94.88
2022-11-16T02:07:27.378Z,100.07
2022-11-16T02:09:30.226Z,101.85
2022-11-16T02:10:58.399Z,102.40
2022-11-16T02:12:31.534Z,92.18
2022-11-16T02:13:58.302Z,102.32
2022-11-16T02:15:08.633Z,96.95
2022-11-16T02:17:40.988Z,98.57
2022-11-16T02:19:20.090Z,96.38
2022-11-16T02:20:25.038Z,108.47
2022-11-16T02:21:52.259Z,100.47
2022-11-16T02:23:25.914Z,112.10
2022-11-16T02:24:44.044Z,107.60
2022-11-16T02:25:59.884Z,104.45
2022-11-16T02:27:42.524Z,106.30
2022-11-16T02:29:21.055Z,101.28
2022-11-16T02:30:24.270Z,96.40
2022-11-16T02:31:36.302Z,99.15
2022-11-16T02:32:55.011Z,108.20
2022-11-16T02:33:59.411Z,105.43
2022-11-16T02:35:20.067Z,104.30
2022-11-16T02:36:25.112Z,93.90
2022-11-16T02:37:32.113Z,99.88
2022-11-16T02:38:39.119Z,98.80
2022-11-16T02:39:43.490Z,103.40
2022-11-16T02:40:50.050Z,102.47
2022-11-16T02:41:58.493Z,103.57
2022-11-16T02:43:09.326Z,98.57
2022-11-16T02:44:16.054Z,105.15
2022-11-16T02:45:25.236Z,99.60
2022-11-16T02:46:31.322Z,107.20
2022-11-16T02:47:36.988Z,106.00
2022-11-16T02:48:46.631Z,101.18
2022-11-16T02:49:56.467Z,99.00
2022-11-16T02:50:58.895Z,99.97
2022-11-16T02:52:02.116Z,105.95
2022-11-16T02:53:04.497Z,107.53
2022-11-16T02:54:15.565Z,112.65
2022-11-16T02:55:22.714Z,122.60
2022-11-16T02:56:25.912Z,114.93
2022-11-16T02:57:49.457Z,110.47
2022-11-16T02:58:51.786Z,105.75
2022-11-16T02:59:57.497Z,118.70
2022-11-16T03:01:08.867Z,112.97
2022-11-16T03:02:48.409Z,113.78
2022-11-16T03:04:17.060Z,112.13
2022-11-16T03:05:32.264Z,104.10
2022-11-16T03:06:41.670Z,106.40
2022-11-16T03:07:48.630Z,119.53
2022-11-16T03:08:56.840Z,110.22
2022-11-16T03:10:00.372Z,123.25
2022-11-16T03:11:27.254Z,125.80
2022-11-16T03:12:35.243Z,121.10
2022-11-16T03:13:38.898Z,110.72
2022-11-16T03:14:49.143Z,116.75
2022-11-16T03:15:54.928Z,120.55
2022-11-16T03:17:00.678Z,111.35
2022-11-16T03:18:04.451Z,121.28
2022-11-16T03:19:10.862Z,118.40
2022-11-16T03:20:20.823Z,116.35
2022-11-16T03:21:30.538Z,121.88
2022-11-16T03:22:39.711Z,121.53
2022-11-16T03:23:42.898Z,131.07
2022-11-16T03:24:45.456Z,124.47
2022-11-16T03:25:52.502Z,137.05
2022-11-16T03:27:08.204Z,121.93
2022-11-16T03:28:17.982Z,124.38
2022-11-16T03:29:30.708Z,129.35
2022-11-16T03:30:43.457Z,124.32
2022-11-16T03:31:50.159Z,134.50
2022-11-16T03:33:03.539Z,131.13
2022-11-16T03:34:12.839Z,129.63
2022-11-16T03:35:21.659Z,137.95
2022-11-16T03:36:36.376Z,117.72
2022-11-16T03:37:40.343Z,119.20
2022-11-16T03:38:45.742Z,130.43
2022-11-16T03:39:50.692Z,116.97
2022-11-16T03:40:59.624Z,123.32
2022-11-16T03:42:04.555Z,132.25
2022-11-16T03:43:08.461Z,141.30
2022-11-16T03:45:14.962Z,125.40
2022-11-16T03:46:18.082Z,132.82
2022-11-16T03:47:21.699Z,136.48
2022-11-16T03:48:24.454Z,123.72
2022-11-16T03:49:30.838Z,127.70
2022-11-16T03:50:33.396Z,114.97
2022-11-16T03:51:37.476Z,127.78
2022-11-16T03:52:39.881Z,117.43
2022-11-16T03:53:42.247Z,124.05
2022-11-16T03:54:46.200Z,131.38
2022-11-16T03:55:49.985Z,123.00
2022-11-16T03:56:52.888Z,127.40
2022-11-16T03:57:56.647Z,120.63
2022-11-16T03:58:59.723Z,135.55
2022-11-16T04:00:02.211Z,144.05
2022-11-16T04:01:06.064Z,127.22
2022-11-16T04:02:08.961Z,133.90
2022-11-16T04:03:11.621Z,135.40
2022-11-16T04:04:34.130Z,142.00
2022-11-16T04:06:12.011Z,119.45
2022-11-16T04:07:32.745Z,131.65
2022-11-16T04:08:53.381Z,118.05
2022-11-16T04:10:14.755Z,133.52
2022-11-16T04:11:39.240Z,125.53
2022-11-16T04:13:02.859Z,131.10
2022-11-16T04:14:24.124Z,131.65
2022-11-16T04:15:45.330Z,121.47
2022-11-16T04:17:06.082Z,108.75
2022-11-16T04:18:29.226Z,115.35
2022-11-16T04:19:54.026Z,131.93
2022-11-16T04:21:19.072Z,133.80
2022-11-16T04:22:46.857Z,119.00
2022-11-16T04:24:07.877Z,156.95
2022-11-16T04:25:34.734Z,120.60
2022-11-16T04:27:04.488Z,115.47
2022-11-16T04:29:20.625Z,105.03
2022-11-16T04:30:22.917Z,145.48
2022-11-16T04:31:44.008Z,117.85
2022-11-16T04:33:06.067Z,140.57
2022-11-16T04:34:27.262Z,110.95
2022-11-16T04:35:51.442Z,158.55
2022-11-16T04:37:12.871Z,156.85
2022-11-16T04:38:16.200Z,131.63
2022-11-16T04:39:18.538Z,134.25
2022-11-16T04:40:29.657Z,122.60
2022-11-16T04:41:51.874Z,133.57
2022-11-16T04:42:56.569Z,133.98
2022-11-16T04:43:59.164Z,123.65
2022-11-16T04:45:22.797Z,126.03
2022-11-16T04:46:46.346Z,127.95
2022-11-16T04:47:49.990Z,137.52
2022-11-16T04:48:53.488Z,135.40
2022-11-16T04:49:55.760Z,137.55
2022-11-16T04:50:59.820Z,137.80
2022-11-16T04:52:02.513Z,152.45
2022-11-16T04:53:07.473Z,159.93
2022-11-16T04:54:17.907Z,160.70
2022-11-16T04:55:20.814Z,132.93
2022-11-16T04:56:24.833Z,133.25
2022-11-16T04:57:27.657Z,149.88
2022-11-16T04:58:30.947Z,137.57
2022-11-16T04:59:33.348Z,131.90
2022-11-16T05:00:35.770Z,129.85
2022-11-16T05:01:56.862Z,125.80
2022-11-16T05:03:01.476Z,128.90
2022-11-16T05:04:05.223Z,137.88
2022-11-16T05:05:08.307Z,156.13
2022-11-16T05:06:12.251Z,135.55
2022-11-16T05:07:15.233Z,157.48
2022-11-16T05:08:19.644Z,133.45
2022-11-16T05:09:23.881Z,143.38
2022-11-16T05:10:26.407Z,149.57
2022-11-16T05:11:29.843Z,126.47
2022-11-16T05:12:33.137Z,153.27
2022-11-16T05:13:37.358Z,176.05
2022-11-16T05:14:39.733Z,196.23
2022-11-16T05:15:45.634Z,180.85
2022-11-16T05:16:49.735Z,126.00
2022-11-16T05:17:54.995Z,129.40
2022-11-16T05:19:18.720Z,128.60
2022-11-16T05:20:39.910Z,147.63
2022-11-16T05:21:43.151Z,128.35
2022-11-16T05:22:45.693Z,134.95
2022-11-16T05:24:06.163Z,124.38
2022-11-16T05:25:09.636Z,125.03
2022-11-16T05:26:11.860Z,130.60
2022-11-16T05:27:16.050Z,128.10
2022-11-16T05:28:18.583Z,129.68
2022-11-16T05:29:21.034Z,138.07
2022-11-16T05:30:32.973Z,160.63
2022-11-16T05:31:40.430Z,139.48
2022-11-16T05:32:45.145Z,146.43
2022-11-16T05:33:48.998Z,150.45
2022-11-16T05:34:51.958Z,140.02
2022-11-16T05:35:54.284Z,133.68
2022-11-16T05:36:57.902Z,171.20
2022-11-16T05:38:00.355Z,141.52
2022-11-16T05:39:04.499Z,148.40
2022-11-16T05:40:10.353Z,154.25
2022-11-16T05:41:18.790Z,159.63
2022-11-16T05:42:21.202Z,143.18
2022-11-16T05:43:23.526Z,140.10
2022-11-16T06:07:24.431Z,206.35
2022-11-16T06:08:27.764Z,310.33
2022-11-16T06:09:36.826Z,149.40
2022-11-16T06:10:49.173Z,131.32
2022-11-16T06:11:51.662Z,139.80
2022-11-16T06:12:54.351Z,146.05
2022-11-16T06:13:57.265Z,157.13
2022-11-16T06:14:59.682Z,181.88
2022-11-16T06:16:05.138Z,135.88
2022-11-16T06:17:14.673Z,163.05
2022-11-16T06:18:18.124Z,224.13
2022-11-16T06:19:21.690Z,149.48
2022-11-16T06:20:24.470Z,141.93
2022-11-16T06:21:28.544Z,158.90
2022-11-16T06:22:31.578Z,210.55
2022-11-16T06:23:34.503Z,171.98
2022-11-16T06:24:37.224Z,131.50
2022-11-16T06:25:40.567Z,274.55
2022-11-16T06:26:43.029Z,140.63
2022-11-16T06:27:45.808Z,131.32
2022-11-16T06:28:55.051Z,155.88
2022-11-16T06:29:58.517Z,173.05
2022-11-16T06:31:05.142Z,148.70
2022-11-16T06:32:12.336Z,123.72
2022-11-16T06:33:15.080Z,133.80
2022-11-16T06:34:17.641Z,169.02
2022-11-16T06:35:19.970Z,155.90
2022-11-16T06:36:25.168Z,163.20
2022-11-16T06:37:28.534Z,130.45
2022-11-16T06:38:31.577Z,137.00
2022-11-16T06:39:34.001Z,151.57
2022-11-16T06:40:38.458Z,125.78
2022-11-16T06:41:41.623Z,133.18
2022-11-16T06:42:47.473Z,165.65
2022-11-16T06:43:50.015Z,147.27
2022-11-16T06:44:56.088Z,148.15
2022-11-16T06:46:03.532Z,139.50
2022-11-16T06:47:06.701Z,122.80
2022-11-16T06:48:10.061Z,132.40
2022-11-16T06:49:12.330Z,134.30
2022-11-16T06:50:16.983Z,122.75
2022-11-16T06:51:19.434Z,124.38
2022-11-16T06:52:22.840Z,127.78
2022-11-16T06:53:29.256Z,130.23
2022-11-16T06:54:35.412Z,138.32
2022-11-16T06:55:38.388Z,183.30
2022-11-16T06:56:40.741Z,155.50
2022-11-16T06:57:43.231Z,172.20
2022-11-16T06:58:45.773Z,167.90
2022-11-16T06:59:50.134Z,148.07
2022-11-16T07:00:52.526Z,134.55
2022-11-16T07:01:55.243Z,126.57
2022-11-16T07:02:57.530Z,107.53
2022-11-16T07:03:59.837Z,128.55
2022-11-16T07:05:03.926Z,136.45
2022-11-16T07:06:11.603Z,138.05
2022-11-16T07:07:16.978Z,158.38
2022-11-16T07:08:21.496Z,150.30
2022-11-16T07:09:24.531Z,115.82
2022-11-16T07:10:27.235Z,131.95
2022-11-16T07:11:29.739Z,127.43
2022-11-16T07:12:33.497Z,165.88
2022-11-16T07:13:38.598Z,156.27
2022-11-16T07:14:42.385Z,159.57
2022-11-16T07:15:46.139Z,199.25
2022-11-16T07:16:48.803Z,197.55
2022-11-16T07:17:51.041Z,145.85
2022-11-16T07:18:56.651Z,192.35
2022-11-16T07:20:00.150Z,125.63
2022-11-16T07:21:11.608Z,134.50
2022-11-16T07:22:14.378Z,141.82
2022-11-16T07:23:17.507Z,156.85
2022-11-16T07:24:23.017Z,152.52
2022-11-16T07:25:25.396Z,156.90
2022-11-16T07:26:29.725Z,160.23
2022-11-16T07:27:37.496Z,152.73
2022-11-16T07:28:45.027Z,153.98
2022-11-16T07:29:51.285Z,130.77
2022-11-16T07:31:11.486Z,169.93
2022-11-16T07:32:16.126Z,164.48
2022-11-16T07:33:47.927Z,128.05
2022-11-16T07:35:13.606Z,156.75
2022-11-16T07:36:17.333Z,123.20
2022-11-16T07:38:23.677Z,156.57
2022-11-16T07:39:26.337Z,139.00
2022-11-16T07:40:31.108Z,150.73
2022-11-16T07:41:33.558Z,168.32
2022-11-16T07:42:46.169Z,230.90
2022-11-16T07:43:54.443Z,150.15
2022-11-16T07:45:05.249Z,146.23
2022-11-16T07:46:45.336Z,222.52
2022-11-16T07:47:40.769Z,134.68
2022-11-16T07:48:48.452Z,142.10
2022-11-16T07:49:54.210Z,120.30
2022-11-16T07:51:06.393Z,148.30
2022-11-16T07:52:11.239Z,186.02
2022-11-16T07:53:28.327Z,204.13
2022-11-16T07:54:30.571Z,166.88
2022-11-16T07:55:34.219Z,164.45
2022-11-16T07:56:38.709Z,146.18
2022-11-16T07:57:41.991Z,181.02
2022-11-16T07:58:45.886Z,181.70
2022-11-16T07:59:48.896Z,167.85
2022-11-16T08:00:51.895Z,139.45
2022-11-16T08:01:55.875Z,169.68
2022-11-16T08:02:58.431Z,152.50
2022-11-16T08:04:06.585Z,137.75
2022-11-16T08:05:09.217Z,149.38
2022-11-16T08:06:17.172Z,129.55
2022-11-16T08:07:20.407Z,144.43
2022-11-16T08:08:27.907Z,132.43
2022-11-16T08:09:30.756Z,150.75
2022-11-16T08:10:33.845Z,142.90
2022-11-16T08:11:36.476Z,131.35
2022-11-16T08:12:39.478Z,132.68
2022-11-16T08:13:43.035Z,133.88
2022-11-16T08:14:45.944Z,122.18
2022-11-16T08:15:49.493Z,159.32
2022-11-16T08:16:52.303Z,127.30
2022-11-16T08:17:54.775Z,135.38
2022-11-16T08:18:57.493Z,132.05
2022-11-16T08:19:59.938Z,181.23
2022-11-16T08:21:05.652Z,148.40
2022-11-16T08:22:08.662Z,138.07
2022-11-16T08:23:10.942Z,167.20
2022-11-16T08:24:13.626Z,142.52
2022-11-16T08:25:18.012Z,165.82
2022-11-16T08:26:23.038Z,142.52
2022-11-16T08:27:33.444Z,188.45
2022-11-16T08:28:37.228Z,159.48
2022-11-16T08:29:39.538Z,141.80
2022-11-16T08:30:51.008Z,144.02
2022-11-16T08:31:56.197Z,142.85
2022-11-16T08:32:59.201Z,133.88
2022-11-16T08:34:01.543Z,146.23
2022-11-16T08:35:05.176Z,151.57
2022-11-16T08:36:13.996Z,148.80
2022-11-16T08:37:17.222Z,160.43
2022-11-16T08:38:21.391Z,162.18
2022-11-16T08:39:28.028Z,152.52
2022-11-16T08:40:30.350Z,165.57
2022-11-16T08:41:32.838Z,161.23
2022-11-16T08:42:38.230Z,118.43
2022-11-16T08:43:44.733Z,151.13
2022-11-16T08:44:47.151Z,142.70
2022-11-16T08:45:53.517Z,133.30
2022-11-16T08:46:56.025Z,118.07
2022-11-16T08:48:22.124Z,119.63
2022-11-16T08:49:26.877Z,108.15
2022-11-16T08:50:29.344Z,112.97
2022-11-16T08:51:32.149Z,123.32
2022-11-16T08:52:39.348Z,138.95
2022-11-16T08:53:42.042Z,144.15
2022-11-16T08:54:44.384Z,167.48
2022-11-16T08:55:46.899Z,143.30
2022-11-16T08:56:49.403Z,132.90
2022-11-16T08:57:53.706Z,139.95
2022-11-16T08:58:59.763Z,127.15
2022-11-16T09:00:04.929Z,160.50
2022-11-16T09:01:10.364Z,159.93
2022-11-16T09:02:12.959Z,140.65
2022-11-16T09:03:15.283Z,119.85
2022-11-16T09:04:19.443Z,124.15
2022-11-16T09:05:21.916Z,134.65
2022-11-16T09:06:25.682Z,112.60
2022-11-16T09:07:28.427Z,113.70
2022-11-16T09:08:31.892Z,116.63
2022-11-16T09:09:34.860Z,112.05
2022-11-16T09:10:37.909Z,132.82
2022-11-16T09:11:40.225Z,128.35
2022-11-16T09:12:42.438Z,142.07
2022-11-16T09:13:46.563Z,119.93
2022-11-16T09:14:49.112Z,126.22
2022-11-16T09:15:58.904Z,144.10
2022-11-16T09:17:01.166Z,112.63
2022-11-16T09:18:03.635Z,116.10
2022-11-16T09:19:06.161Z,112.75
2022-11-16T09:20:09.319Z,123.72
2022-11-16T09:21:11.673Z,127.93
2022-11-16T09:22:16.146Z,124.40
2022-11-16T09:23:23.851Z,125.72
2022-11-16T09:24:27.663Z,122.00
2022-11-16T09:25:29.957Z,116.57
2022-11-16T09:26:32.832Z,106.60
2022-11-16T09:27:35.076Z,110.53
2022-11-16T09:28:37.824Z,108.25
2022-11-16T09:29:40.125Z,110.18
2022-11-16T09:30:43.749Z,117.88
2022-11-16T09:31:46.190Z,108.32
2022-11-16T09:32:48.527Z,106.32
2022-11-16T09:33:54.049Z,123.70
2022-11-16T09:34:57.099Z,112.68
2022-11-16T09:36:08.072Z,107.07
2022-11-16T09:37:10.288Z,115.53
2022-11-16T09:38:19.093Z,105.68
2022-11-16T09:39:32.642Z,99.43
2022-11-16T09:40:38.977Z,98.40
2022-11-16T09:42:00.104Z,99.82
2022-11-16T09:43:02.426Z,96.32
2022-11-16T09:44:07.664Z,102.43
2022-11-16T09:45:25.129Z,91.05
2022-11-16T09:46:33.189Z,88.57
2022-11-16T09:47:50.017Z,96.07
2022-11-16T09:48:54.338Z,85.50
2022-11-16T09:50:03.588Z,94.07
2022-11-16T09:51:10.350Z,88.53
2022-11-16T09:52:43.401Z,91.72
2022-11-16T09:53:51.535Z,85.60
2022-11-16T09:54:56.284Z,85.88
2022-11-16T09:56:08.719Z,84.97
2022-11-16T09:57:15.243Z,87.07
2022-11-16T09:58:27.353Z,87.35
2022-11-16T09:59:45.450Z,85.93
2022-11-16T10:00:56.467Z,81.82
2022-11-16T10:02:25.803Z,82.53
2022-11-16T10:03:32.193Z,81.30
2022-11-16T10:04:58.010Z,77.35
2022-11-16T10:06:06.797Z,80.88
2022-11-16T10:07:15.581Z,78.00
2022-11-16T10:08:30.696Z,81.35
2022-11-16T10:09:33.214Z,81.50
2022-11-16T10:10:40.232Z,70.07
2022-11-16T10:11:59.178Z,80.65
2022-11-16T10:13:26.482Z,70.80
2022-11-16T10:14:31.646Z,83.22
2022-11-16T10:15:46.334Z,79.57
2022-11-16T10:17:15.017Z,80.45
2022-11-16T10:19:50.333Z,76.90
2022-11-16T10:21:02.243Z,76.32
2022-11-16T10:22:54.401Z,85.80
2022-11-16T10:24:06.108Z,79.72
2022-11-16T10:25:23.221Z,75.55
2022-11-16T10:26:44.227Z,77.35
2022-11-16T10:28:17.012Z,81.53
2022-11-16T10:29:46.692Z,71.38
2022-11-16T10:31:18.029Z,75.03
2022-11-16T10:32:29.096Z,78.22
2022-11-16T10:33:36.609Z,80.00
2022-11-16T10:35:02.528Z,82.53
2022-11-16T10:36:12.116Z,73.15
2022-11-16T10:37:14.607Z,82.00
2022-11-16T10:38:20.398Z,84.13
2022-11-16T10:39:24.568Z,95.05
2022-11-16T10:40:32.641Z,88.65
2022-11-16T10:41:42.553Z,89.57
2022-11-16T10:42:52.126Z,89.95
2022-11-16T10:43:58.622Z,86.88
2022-11-16T10:45:18.144Z,89.38
2022-11-16T10:46:44.816Z,93.72
2022-11-16T10:47:57.323Z,87.28
2022-11-16T10:49:18.489Z,90.63
2022-11-16T10:50:48.129Z,91.88
2022-11-16T10:51:50.489Z,81.47
2022-11-16T10:52:52.833Z,88.00
2022-11-16T10:53:56.235Z,82.90
2022-11-16T10:54:58.531Z,87.80
2022-11-16T10:56:15.733Z,94.15
2022-11-16T10:58:20.956Z,81.40
2022-11-16T10:59:43.507Z,83.65
2022-11-16T11:00:52.007Z,80.95
2022-11-16T11:01:54.651Z,82.38
2022-11-16T11:02:56.989Z,96.93
2022-11-16T11:04:30.367Z,92.88
2022-11-16T11:05:35.496Z,99.18
2022-11-16T11:06:38.993Z,91.78
2022-11-16T11:07:56.839Z,99.13
2022-11-16T11:09:25.621Z,82.85
2022-11-16T11:10:28.438Z,100.57
2022-11-16T11:11:49.103Z,89.82
2022-11-16T11:13:26.792Z,87.55
2022-11-16T11:14:29.416Z,85.95
2022-11-16T11:15:32.159Z,83.30
2022-11-16T11:16:35.525Z,87.57
2022-11-16T11:17:49.674Z,90.32
2022-11-16T11:18:51.953Z,77.50
2022-11-16T11:20:11.715Z,91.85
2022-11-16T11:21:19.426Z,92.72
2022-11-16T11:22:21.766Z,90.93
2022-11-16T11:23:25.664Z,92.57
2022-11-16T11:24:44.032Z,95.93
2022-11-16T11:25:53.978Z,94.38
2022-11-16T11:26:59.592Z,86.68
2022-11-16T11:28:20.497Z,82.15
2022-11-16T11:29:32.667Z,73.82
2022-11-16T11:30:36.088Z,87.38
2022-11-16T11:31:49.074Z,99.35
2022-11-16T11:32:53.116Z,80.07
2022-11-16T11:33:59.751Z,86.03
2022-11-16T11:35:03.118Z,92.63
2022-11-16T11:36:22.848Z,87.07
2022-11-16T11:37:35.814Z,98.20
2022-11-16T11:38:56.678Z,82.15
2022-11-16T11:40:19.695Z,89.05
2022-11-16T11:41:21.986Z,101.95
2022-11-16T11:42:24.284Z,92.10
2022-11-16T11:43:27.802Z,95.40
2022-11-16T11:44:58.795Z,91.38
2022-11-16T11:46:16.578Z,95.65
2022-11-16T11:49:15.196Z,86.10
2022-11-16T11:50:41.023Z,76.97
2022-11-16T11:51:47.158Z,80.80
2022-11-16T11:53:05.749Z,92.10
2022-11-16T11:54:21.046Z,94.47
2022-11-16T11:55:23.911Z,81.25
2022-11-16T11:56:28.837Z,87.13
2022-11-16T11:57:35.059Z,89.85
2022-11-16T11:58:39.665Z,87.55
2022-11-16T11:59:42.231Z,80.63
2022-11-16T12:01:13.169Z,89.60
2022-11-16T12:02:17.892Z,100.38
2022-11-16T12:03:41.556Z,97.30
2022-11-16T12:05:05.890Z,94.80
2022-11-16T12:06:43.642Z,112.45
2022-11-16T12:07:56.879Z,108.47
2022-11-16T12:09:11.092Z,101.82
2022-11-16T12:10:38.446Z,99.93
2022-11-16T12:12:10.470Z,93.72
2022-11-16T12:13:31.514Z,97.22
2022-11-16T12:14:56.004Z,112.63
2022-11-16T12:16:11.542Z,93.00
2022-11-16T12:17:45.612Z,97.57
2022-11-16T12:19:09.773Z,98.55
2022-11-16T12:20:33.193Z,88.65
2022-11-16T12:21:53.515Z,101.30
2022-11-16T12:23:14.812Z,98.97
2022-11-16T12:24:50.082Z,98.90
2022-11-16T12:26:17.143Z,112.18
2022-11-16T12:27:58.447Z,103.03
2022-11-16T12:29:26.083Z,95.88
2022-11-16T12:30:28.457Z,100.57
2022-11-16T12:31:46.700Z,100.35
2022-11-16T12:33:16.970Z,99.50
2022-11-16T12:34:20.475Z,94.45
2022-11-16T12:35:29.073Z,103.45
2022-11-16T12:36:31.749Z,97.25
2022-11-16T12:38:00.810Z,123.68
2022-11-16T12:39:34.602Z,131.90
2022-11-16T12:40:52.016Z,126.50
2022-11-16T12:42:03.784Z,124.88
2022-11-16T12:43:35.587Z,116.45
2022-11-16T12:44:50.333Z,116.90
2022-11-16T12:46:11.505Z,110.10
2022-11-16T12:47:40.258Z,117.28
2022-11-16T12:48:59.388Z,110.82
2022-11-16T12:50:30.806Z,103.35
2022-11-16T12:52:07.004Z,116.70
2022-11-16T12:53:32.453Z,113.22
2022-11-16T12:55:24.223Z,104.70
2022-11-16T12:56:38.118Z,110.97
2022-11-16T12:58:16.054Z,114.20
2022-11-16T12:59:39.302Z,106.88
2022-11-16T13:01:00.000Z,117.85
2022-11-16T13:02:11.387Z,121.97
2022-11-16T13:03:22.155Z,119.40
2022-11-16T13:04:47.601Z,127.65
2022-11-16T13:05:57.883Z,122.60
2022-11-16T13:07:26.912Z,136.57
2022-11-16T13:08:41.485Z,109.38
2022-11-16T13:09:49.406Z,121.65
2022-11-16T13:11:05.602Z,135.10
2022-11-16T13:12:15.429Z,123.28
2022-11-16T13:13:36.257Z,127.72
2022-11-16T13:14:42.029Z,139.68
2022-11-16T13:15:48.081Z,159.73
2022-11-16T13:16:51.869Z,151.73
2022-11-16T13:17:58.559Z,158.30
2022-11-16T13:19:03.956Z,166.15
2022-11-16T13:20:10.219Z,140.60
2022-11-16T13:21:21.112Z,215.30
2022-11-16T13:22:28.248Z,216.27
2022-11-16T13:23:54.917Z,192.30
2022-11-16T13:25:42.725Z,158.48
2022-11-16T13:26:59.305Z,123.13
2022-11-16T13:28:36.713Z,127.72
2022-11-16T13:30:11.425Z,134.77
2022-11-16T13:31:16.155Z,120.60
2022-11-16T13:32:37.584Z,126.00
2022-11-16T13:34:01.432Z,124.57
2022-11-16T13:35:07.032Z,131.73
2022-11-16T13:36:32.476Z,124.80
2022-11-16T13:37:43.565Z,126.28
2022-11-16T13:38:55.078Z,126.38
2022-11-16T13:39:58.715Z,129.80
2022-11-16T13:41:33.821Z,122.88
2022-11-16T13:42:45.474Z,137.18
2022-11-16T13:43:49.764Z,111.65
2022-11-16T13:44:53.466Z,136.80
2022-11-16T13:45:59.746Z,127.43
2022-11-16T13:47:06.122Z,111.85
2022-11-16T13:48:24.655Z,132.70
2022-11-16T13:49:32.572Z,127.80
2022-11-16T13:50:38.435Z,113.10
2022-11-16T13:51:52.081Z,123.63
2022-11-16T13:54:59.349Z,111.60
2022-11-16T13:56:07.464Z,108.30
2022-11-16T13:57:31.019Z,104.13
2022-11-16T13:58:35.974Z,106.63
2022-11-16T13:59:38.763Z,118.63
2022-11-16T14:00:41.752Z,123.57
2022-11-16T14:01:59.173Z,122.43
2022-11-16T14:03:18.967Z,117.75
2022-11-16T14:04:41.986Z,113.30
2022-11-16T14:05:47.381Z,111.93
2022-11-16T14:06:50.207Z,125.25
2022-11-16T14:07:52.647Z,123.15
2022-11-16T14:08:58.601Z,131.32
2022-11-16T14:10:02.116Z,128.10
2022-11-16T14:11:25.150Z,117.30
2022-11-16T14:13:49.129Z,118.43
2022-11-16T14:15:12.761Z,120.43
2022-11-16T14:16:15.069Z,120.35
2022-11-16T14:18:00.445Z,119.72
2022-11-16T14:19:05.604Z,135.60
2022-11-16T14:20:17.111Z,131.18
2022-11-16T14:21:37.186Z,137.40
2022-11-16T14:22:56.293Z,134.52
2022-11-16T14:24:07.552Z,152.18
2022-11-16T14:25:48.724Z,137.48
2022-11-16T14:27:13.412Z,138.23
2022-11-16T14:28:47.481Z,140.07
2022-11-16T14:30:00.560Z,135.57
2022-11-16T14:31:26.855Z,133.68
2022-11-16T14:32:41.255Z,164.32
2022-11-16T14:33:51.260Z,153.75
2022-11-16T14:34:58.394Z,149.57
2022-11-16T14:36:03.822Z,148.60
2022-11-16T14:37:14.234Z,136.82
2022-11-16T14:38:36.873Z,147.27
2022-11-16T14:39:44.239Z,154.63
2022-11-16T14:40:48.547Z,134.60
2022-11-16T14:44:24.651Z,129.05
2022-11-16T14:45:33.079Z,128.93
2022-11-16T14:46:37.278Z,129.32
2022-11-16T14:47:39.876Z,123.50
2022-11-16T14:48:46.442Z,135.48
2022-11-16T14:49:49.536Z,207.55
2022-11-16T14:51:07.358Z,167.32
2022-11-16T14:52:11.436Z,209.25
2022-11-16T14:53:17.975Z,173.18
2022-11-16T14:54:46.132Z,180.43
2022-11-16T14:55:48.606Z,242.77
2022-11-16T14:57:15.202Z,247.13
2022-11-16T14:58:23.754Z,201.23
2022-11-16T14:59:26.943Z,210.45
2022-11-16T15:00:30.512Z,198.85
2022-11-16T15:01:39.312Z,188.40
2022-11-16T15:02:46.939Z,204.35
2022-11-16T15:04:02.701Z,206.00
2022-11-16T15:05:05.324Z,217.43
2022-11-16T15:06:08.573Z,184.80
2022-11-16T15:07:13.101Z,184.55
2022-11-16T15:08:19.539Z,176.13
2022-11-16T15:09:29.968Z,175.20
2022-11-16T15:10:32.358Z,187.18
2022-11-16T15:11:58.972Z,176.48
2022-11-16T15:13:01.449Z,174.00
2022-11-16T15:14:03.755Z,172.18
2022-11-16T15:15:13.385Z,186.55
2022-11-16T15:16:18.575Z,180.55
2022-11-16T15:17:27.217Z,174.15